sensor_id;sensor_type;location;lat;lon;timestamp;P1;durP1;ratioP1;P2;durP2;ratioP2
7531;SDS011;3807;49.030;8.714;2024-01-10T00:01:27;15.93;;;7.70;;
7531;SDS011;3807;49.030;8.714;2024-01-10T00:03:53;23.03;;;7.17;;
7531;SDS011;3807;49.030;8.714;2024-01-10T00:06:19;18.93;;;8.03;;
7531;SDS011;3807;49.030;8.714;2024-01-10T00:08:45;15.43;;;7.73;;
7531;SDS011;3807;49.030;8.714;2024-01-10T00:11:10;13.30;;;6.73;;
7531;SDS011;3807;49.030;8.714;2024-01-10T00:13:36;13.57;;;6.47;;
7531;SDS011;3807;49.030;8.714;2024-01-10T00:16:01;14.37;;;7.77;;
7531;SDS011;3807;49.030;8.714;2024-01-10T00:18:26;18.07;;;8.20;;
7531;SDS011;3807;49.030;8.714;2024-01-10T00:20:52;15.63;;;7.70;;
7531;SDS011;3807;49.030;8.714;2024-01-10T00:23:20;11.60;;;7.70;;
7531;SDS011;3807;49.030;8.714;2024-01-10T00:25:47;16.20;;;7.63;;
7531;SDS011;3807;49.030;8.714;2024-01-10T00:28:12;17.23;;;7.43;;
7531;SDS011;3807;49.030;8.714;2024-01-10T00:30:38;16.70;;;8.40;;
7531;SDS011;3807;49.030;8.714;2024-01-10T00:33:04;13.97;;;7.57;;
7531;SDS011;3807;49.030;8.714;2024-01-10T00:35:30;15.00;;;7.20;;
7531;SDS011;3807;49.030;8.714;2024-01-10T00:37:55;12.63;;;7.63;;
7531;SDS011;3807;49.030;8.714;2024-01-10T00:40:21;20.13;;;9.73;;
7531;SDS011;3807;49.030;8.714;2024-01-10T00:42:47;13.77;;;7.73;;
7531;SDS011;3807;49.030;8.714;2024-01-10T00:45:12;15.87;;;7.03;;
7531;SDS011;3807;49.030;8.714;2024-01-10T00:47:38;15.30;;;7.97;;
7531;SDS011;3807;49.030;8.714;2024-01-10T00:50:03;14.83;;;7.43;;
7531;SDS011;3807;49.030;8.714;2024-01-10T00:52:29;18.17;;;7.73;;
7531;SDS011;3807;49.030;8.714;2024-01-10T00:54:54;15.23;;;7.93;;
7531;SDS011;3807;49.030;8.714;2024-01-10T00:57:19;14.27;;;6.93;;
7531;SDS011;3807;49.030;8.714;2024-01-10T00:59:45;13.37;;;6.40;;
7531;SDS011;3807;49.030;8.714;2024-01-10T01:02:10;20.87;;;7.23;;
7531;SDS011;3807;49.030;8.714;2024-01-10T01:04:35;15.37;;;6.87;;
7531;SDS011;3807;49.030;8.714;2024-01-10T01:07:01;11.00;;;6.87;;
7531;SDS011;3807;49.030;8.714;2024-01-10T01:09:26;14.60;;;7.63;;
7531;SDS011;3807;49.030;8.714;2024-01-10T01:11:51;15.10;;;7.73;;
7531;SDS011;3807;49.030;8.714;2024-01-10T01:14:17;12.20;;;6.87;;
7531;SDS011;3807;49.030;8.714;2024-01-10T01:16:42;14.00;;;7.53;;
7531;SDS011;3807;49.030;8.714;2024-01-10T01:19:08;14.90;;;6.77;;
7531;SDS011;3807;49.030;8.714;2024-01-10T01:21:33;16.63;;;7.37;;
7531;SDS011;3807;49.030;8.714;2024-01-10T01:23:59;18.83;;;7.70;;
7531;SDS011;3807;49.030;8.714;2024-01-10T01:26:24;14.40;;;8.07;;
7531;SDS011;3807;49.030;8.714;2024-01-10T01:28:49;15.00;;;6.87;;
7531;SDS011;3807;49.030;8.714;2024-01-10T01:31:15;17.67;;;8.93;;
7531;SDS011;3807;49.030;8.714;2024-01-10T01:33:40;15.47;;;7.80;;
7531;SDS011;3807;49.030;8.714;2024-01-10T01:36:05;17.13;;;8.33;;
7531;SDS011;3807;49.030;8.714;2024-01-10T01:38:31;13.53;;;6.70;;
7531;SDS011;3807;49.030;8.714;2024-01-10T01:40:57;13.67;;;7.13;;
7531;SDS011;3807;49.030;8.714;2024-01-10T01:43:25;16.17;;;8.03;;
7531;SDS011;3807;49.030;8.714;2024-01-10T01:45:52;14.30;;;7.20;;
7531;SDS011;3807;49.030;8.714;2024-01-10T01:48:19;17.97;;;8.30;;
7531;SDS011;3807;49.030;8.714;2024-01-10T01:50:45;17.07;;;8.50;;
7531;SDS011;3807;49.030;8.714;2024-01-10T01:53:13;15.23;;;7.37;;
7531;SDS011;3807;49.030;8.714;2024-01-10T01:55:40;13.23;;;6.63;;
7531;SDS011;3807;49.030;8.714;2024-01-10T01:58:08;15.67;;;8.07;;
7531;SDS011;3807;49.030;8.714;2024-01-10T02:00:34;13.27;;;5.67;;
7531;SDS011;3807;49.030;8.714;2024-01-10T02:03:00;18.80;;;8.30;;
7531;SDS011;3807;49.030;8.714;2024-01-10T02:05:26;15.10;;;7.57;;
7531;SDS011;3807;49.030;8.714;2024-01-10T02:07:52;11.17;;;5.57;;
7531;SDS011;3807;49.030;8.714;2024-01-10T02:10:18;18.63;;;7.77;;
7531;SDS011;3807;49.030;8.714;2024-01-10T02:12:44;17.97;;;8.93;;
7531;SDS011;3807;49.030;8.714;2024-01-10T02:15:10;18.10;;;8.87;;
7531;SDS011;3807;49.030;8.714;2024-01-10T02:17:36;12.07;;;6.87;;
7531;SDS011;3807;49.030;8.714;2024-01-10T02:20:08;13.77;;;6.53;;
7531;SDS011;3807;49.030;8.714;2024-01-10T02:22:34;15.33;;;8.07;;
7531;SDS011;3807;49.030;8.714;2024-01-10T02:24:59;16.90;;;7.93;;
7531;SDS011;3807;49.030;8.714;2024-01-10T02:27:24;16.60;;;8.33;;
7531;SDS011;3807;49.030;8.714;2024-01-10T02:29:50;20.83;;;8.43;;
7531;SDS011;3807;49.030;8.714;2024-01-10T02:32:17;13.27;;;7.13;;
7531;SDS011;3807;49.030;8.714;2024-01-10T02:34:42;17.50;;;7.50;;
7531;SDS011;3807;49.030;8.714;2024-01-10T02:37:08;17.10;;;9.17;;
7531;SDS011;3807;49.030;8.714;2024-01-10T02:39:33;19.23;;;8.83;;
7531;SDS011;3807;49.030;8.714;2024-01-10T02:41:58;11.77;;;7.03;;
7531;SDS011;3807;49.030;8.714;2024-01-10T02:44:23;15.23;;;7.53;;
7531;SDS011;3807;49.030;8.714;2024-01-10T02:46:49;14.93;;;8.17;;
7531;SDS011;3807;49.030;8.714;2024-01-10T02:49:14;15.40;;;8.40;;
7531;SDS011;3807;49.030;8.714;2024-01-10T02:51:40;19.50;;;8.90;;
7531;SDS011;3807;49.030;8.714;2024-01-10T02:54:05;15.00;;;6.73;;
7531;SDS011;3807;49.030;8.714;2024-01-10T02:56:30;15.03;;;8.10;;
7531;SDS011;3807;49.030;8.714;2024-01-10T02:58:56;20.03;;;8.93;;
7531;SDS011;3807;49.030;8.714;2024-01-10T03:01:21;21.50;;;8.67;;
7531;SDS011;3807;49.030;8.714;2024-01-10T03:03:46;11.23;;;6.63;;
7531;SDS011;3807;49.030;8.714;2024-01-10T03:06:12;15.03;;;7.67;;
7531;SDS011;3807;49.030;8.714;2024-01-10T03:08:37;11.97;;;6.23;;
7531;SDS011;3807;49.030;8.714;2024-01-10T03:11:02;16.67;;;6.93;;
7531;SDS011;3807;49.030;8.714;2024-01-10T03:13:28;10.67;;;5.43;;
7531;SDS011;3807;49.030;8.714;2024-01-10T03:15:53;11.07;;;5.97;;
7531;SDS011;3807;49.030;8.714;2024-01-10T03:18:18;24.03;;;9.30;;
7531;SDS011;3807;49.030;8.714;2024-01-10T03:20:44;14.83;;;7.70;;
7531;SDS011;3807;49.030;8.714;2024-01-10T03:23:09;13.47;;;7.97;;
7531;SDS011;3807;49.030;8.714;2024-01-10T03:25:35;11.97;;;6.70;;
7531;SDS011;3807;49.030;8.714;2024-01-10T03:28:00;13.53;;;6.97;;
7531;SDS011;3807;49.030;8.714;2024-01-10T03:30:25;19.07;;;9.33;;
7531;SDS011;3807;49.030;8.714;2024-01-10T03:32:51;11.87;;;6.87;;
7531;SDS011;3807;49.030;8.714;2024-01-10T03:35:16;15.03;;;7.63;;
7531;SDS011;3807;49.030;8.714;2024-01-10T03:37:41;19.23;;;8.77;;
7531;SDS011;3807;49.030;8.714;2024-01-10T03:40:07;17.17;;;8.63;;
7531;SDS011;3807;49.030;8.714;2024-01-10T03:42:33;14.63;;;6.97;;
7531;SDS011;3807;49.030;8.714;2024-01-10T03:44:58;14.90;;;8.53;;
7531;SDS011;3807;49.030;8.714;2024-01-10T03:47:24;19.20;;;9.07;;
7531;SDS011;3807;49.030;8.714;2024-01-10T03:49:49;13.77;;;7.83;;
7531;SDS011;3807;49.030;8.714;2024-01-10T03:52:14;19.40;;;8.70;;
7531;SDS011;3807;49.030;8.714;2024-01-10T03:54:40;16.30;;;8.23;;
7531;SDS011;3807;49.030;8.714;2024-01-10T03:57:06;17.27;;;7.90;;
7531;SDS011;3807;49.030;8.714;2024-01-10T03:59:31;19.97;;;7.73;;
7531;SDS011;3807;49.030;8.714;2024-01-10T04:01:57;19.10;;;9.23;;
7531;SDS011;3807;49.030;8.714;2024-01-10T04:04:25;19.03;;;9.37;;
7531;SDS011;3807;49.030;8.714;2024-01-10T04:06:51;19.13;;;8.93;;
7531;SDS011;3807;49.030;8.714;2024-01-10T04:09:17;18.27;;;8.80;;
7531;SDS011;3807;49.030;8.714;2024-01-10T04:11:42;17.47;;;9.43;;
7531;SDS011;3807;49.030;8.714;2024-01-10T04:14:08;17.03;;;7.97;;
7531;SDS011;3807;49.030;8.714;2024-01-10T04:16:33;17.97;;;8.93;;
7531;SDS011;3807;49.030;8.714;2024-01-10T04:18:58;19.97;;;9.67;;
7531;SDS011;3807;49.030;8.714;2024-01-10T04:21:24;18.03;;;9.70;;
7531;SDS011;3807;49.030;8.714;2024-01-10T04:23:49;16.83;;;7.87;;
7531;SDS011;3807;49.030;8.714;2024-01-10T04:26:16;13.70;;;7.33;;
7531;SDS011;3807;49.030;8.714;2024-01-10T04:28:42;17.63;;;8.30;;
7531;SDS011;3807;49.030;8.714;2024-01-10T04:31:07;17.13;;;7.97;;
7531;SDS011;3807;49.030;8.714;2024-01-10T04:33:34;16.50;;;9.07;;
7531;SDS011;3807;49.030;8.714;2024-01-10T04:35:59;17.47;;;9.50;;
7531;SDS011;3807;49.030;8.714;2024-01-10T04:38:25;18.20;;;8.40;;
7531;SDS011;3807;49.030;8.714;2024-01-10T04:40:51;18.03;;;8.63;;
7531;SDS011;3807;49.030;8.714;2024-01-10T04:43:17;17.93;;;8.40;;
7531;SDS011;3807;49.030;8.714;2024-01-10T04:45:42;15.03;;;7.43;;
7531;SDS011;3807;49.030;8.714;2024-01-10T04:48:08;17.87;;;8.93;;
7531;SDS011;3807;49.030;8.714;2024-01-10T04:50:34;17.27;;;9.53;;
7531;SDS011;3807;49.030;8.714;2024-01-10T04:53:00;17.53;;;9.37;;
7531;SDS011;3807;49.030;8.714;2024-01-10T04:55:25;16.57;;;8.13;;
7531;SDS011;3807;49.030;8.714;2024-01-10T04:57:50;17.20;;;9.70;;
7531;SDS011;3807;49.030;8.714;2024-01-10T05:00:16;18.10;;;9.00;;
7531;SDS011;3807;49.030;8.714;2024-01-10T05:02:41;15.00;;;8.03;;
7531;SDS011;3807;49.030;8.714;2024-01-10T05:05:07;18.77;;;9.27;;
7531;SDS011;3807;49.030;8.714;2024-01-10T05:07:32;17.70;;;8.23;;
7531;SDS011;3807;49.030;8.714;2024-01-10T05:09:58;15.80;;;7.70;;
7531;SDS011;3807;49.030;8.714;2024-01-10T05:12:23;19.47;;;8.37;;
7531;SDS011;3807;49.030;8.714;2024-01-10T05:14:49;17.37;;;7.80;;
7531;SDS011;3807;49.030;8.714;2024-01-10T05:17:14;14.43;;;7.47;;
7531;SDS011;3807;49.030;8.714;2024-01-10T05:19:39;16.57;;;7.80;;
7531;SDS011;3807;49.030;8.714;2024-01-10T05:22:05;18.37;;;8.37;;
7531;SDS011;3807;49.030;8.714;2024-01-10T05:24:31;17.07;;;8.30;;
7531;SDS011;3807;49.030;8.714;2024-01-10T05:26:56;13.00;;;8.13;;
7531;SDS011;3807;49.030;8.714;2024-01-10T05:29:22;17.33;;;9.33;;
7531;SDS011;3807;49.030;8.714;2024-01-10T05:31:49;15.57;;;7.90;;
7531;SDS011;3807;49.030;8.714;2024-01-10T05:34:14;18.43;;;8.53;;
7531;SDS011;3807;49.030;8.714;2024-01-10T05:36:40;18.77;;;8.77;;
7531;SDS011;3807;49.030;8.714;2024-01-10T05:39:05;18.63;;;9.37;;
7531;SDS011;3807;49.030;8.714;2024-01-10T05:41:30;20.27;;;9.33;;
7531;SDS011;3807;49.030;8.714;2024-01-10T05:43:56;18.87;;;9.13;;
7531;SDS011;3807;49.030;8.714;2024-01-10T05:46:21;20.40;;;9.50;;
7531;SDS011;3807;49.030;8.714;2024-01-10T05:48:46;16.77;;;8.20;;
7531;SDS011;3807;49.030;8.714;2024-01-10T05:51:13;19.13;;;8.67;;
7531;SDS011;3807;49.030;8.714;2024-01-10T05:53:38;20.27;;;9.00;;
7531;SDS011;3807;49.030;8.714;2024-01-10T05:56:05;15.33;;;8.43;;
7531;SDS011;3807;49.030;8.714;2024-01-10T05:58:31;19.37;;;9.00;;
7531;SDS011;3807;49.030;8.714;2024-01-10T06:00:57;18.50;;;8.50;;
7531;SDS011;3807;49.030;8.714;2024-01-10T06:03:22;16.73;;;9.40;;
7531;SDS011;3807;49.030;8.714;2024-01-10T06:05:49;13.73;;;8.07;;
7531;SDS011;3807;49.030;8.714;2024-01-10T06:08:15;17.80;;;9.27;;
7531;SDS011;3807;49.030;8.714;2024-01-10T06:10:40;20.93;;;9.37;;
7531;SDS011;3807;49.030;8.714;2024-01-10T06:13:06;17.87;;;8.37;;
7531;SDS011;3807;49.030;8.714;2024-01-10T06:15:32;19.80;;;8.47;;
7531;SDS011;3807;49.030;8.714;2024-01-10T06:17:57;17.47;;;8.33;;
7531;SDS011;3807;49.030;8.714;2024-01-10T06:20:23;17.40;;;8.33;;
7531;SDS011;3807;49.030;8.714;2024-01-10T06:22:48;18.27;;;8.07;;
7531;SDS011;3807;49.030;8.714;2024-01-10T06:25:14;18.47;;;8.17;;
7531;SDS011;3807;49.030;8.714;2024-01-10T06:27:40;14.83;;;8.30;;
7531;SDS011;3807;49.030;8.714;2024-01-10T06:30:06;22.47;;;10.63;;
7531;SDS011;3807;49.030;8.714;2024-01-10T06:32:34;18.67;;;10.07;;
7531;SDS011;3807;49.030;8.714;2024-01-10T06:35:00;22.30;;;10.40;;
7531;SDS011;3807;49.030;8.714;2024-01-10T06:37:27;17.57;;;9.33;;
7531;SDS011;3807;49.030;8.714;2024-01-10T06:39:53;21.33;;;10.67;;
7531;SDS011;3807;49.030;8.714;2024-01-10T06:42:18;24.27;;;10.50;;
7531;SDS011;3807;49.030;8.714;2024-01-10T06:44:44;22.53;;;10.73;;
7531;SDS011;3807;49.030;8.714;2024-01-10T06:47:10;24.37;;;9.93;;
7531;SDS011;3807;49.030;8.714;2024-01-10T06:49:36;20.00;;;9.27;;
7531;SDS011;3807;49.030;8.714;2024-01-10T06:52:01;19.60;;;9.97;;
7531;SDS011;3807;49.030;8.714;2024-01-10T06:54:27;16.87;;;8.90;;
7531;SDS011;3807;49.030;8.714;2024-01-10T06:56:52;11.30;;;6.77;;
7531;SDS011;3807;49.030;8.714;2024-01-10T06:59:17;20.53;;;9.23;;
7531;SDS011;3807;49.030;8.714;2024-01-10T07:01:43;20.73;;;9.37;;
7531;SDS011;3807;49.030;8.714;2024-01-10T07:04:08;12.13;;;6.53;;
7531;SDS011;3807;49.030;8.714;2024-01-10T07:06:33;18.33;;;8.60;;
7531;SDS011;3807;49.030;8.714;2024-01-10T07:08:59;13.20;;;6.93;;
7531;SDS011;3807;49.030;8.714;2024-01-10T07:11:25;16.87;;;8.50;;
7531;SDS011;3807;49.030;8.714;2024-01-10T07:13:53;19.50;;;10.17;;
7531;SDS011;3807;49.030;8.714;2024-01-10T07:16:18;20.00;;;9.83;;
7531;SDS011;3807;49.030;8.714;2024-01-10T07:18:44;18.50;;;9.03;;
7531;SDS011;3807;49.030;8.714;2024-01-10T07:21:11;14.47;;;8.43;;
7531;SDS011;3807;49.030;8.714;2024-01-10T07:23:36;20.17;;;9.73;;
7531;SDS011;3807;49.030;8.714;2024-01-10T07:26:05;17.07;;;8.53;;
7531;SDS011;3807;49.030;8.714;2024-01-10T07:28:30;23.50;;;10.63;;
7531;SDS011;3807;49.030;8.714;2024-01-10T07:30:57;18.10;;;8.97;;
7531;SDS011;3807;49.030;8.714;2024-01-10T07:33:23;37.20;;;13.83;;
7531;SDS011;3807;49.030;8.714;2024-01-10T07:35:48;34.60;;;13.43;;
7531;SDS011;3807;49.030;8.714;2024-01-10T07:38:13;21.20;;;9.47;;
7531;SDS011;3807;49.030;8.714;2024-01-10T07:40:39;23.33;;;10.33;;
7531;SDS011;3807;49.030;8.714;2024-01-10T07:43:04;24.10;;;10.83;;
7531;SDS011;3807;49.030;8.714;2024-01-10T07:45:29;20.27;;;9.90;;
7531;SDS011;3807;49.030;8.714;2024-01-10T07:47:55;17.97;;;8.30;;
7531;SDS011;3807;49.030;8.714;2024-01-10T07:50:20;19.00;;;8.17;;
7531;SDS011;3807;49.030;8.714;2024-01-10T07:52:46;17.30;;;8.57;;
7531;SDS011;3807;49.030;8.714;2024-01-10T07:55:11;16.47;;;8.17;;
7531;SDS011;3807;49.030;8.714;2024-01-10T07:57:37;19.90;;;8.90;;
7531;SDS011;3807;49.030;8.714;2024-01-10T08:00:04;20.70;;;9.77;;
7531;SDS011;3807;49.030;8.714;2024-01-10T08:02:35;23.03;;;9.60;;
7531;SDS011;3807;49.030;8.714;2024-01-10T08:05:02;19.30;;;9.17;;
7531;SDS011;3807;49.030;8.714;2024-01-10T08:07:33;28.53;;;10.60;;
7531;SDS011;3807;49.030;8.714;2024-01-10T08:10:05;24.40;;;9.63;;
7531;SDS011;3807;49.030;8.714;2024-01-10T08:12:31;19.27;;;9.80;;
7531;SDS011;3807;49.030;8.714;2024-01-10T08:14:57;18.50;;;10.13;;
7531;SDS011;3807;49.030;8.714;2024-01-10T08:17:22;23.20;;;10.90;;
7531;SDS011;3807;49.030;8.714;2024-01-10T08:19:48;26.20;;;9.33;;
7531;SDS011;3807;49.030;8.714;2024-01-10T08:22:13;24.43;;;11.10;;
7531;SDS011;3807;49.030;8.714;2024-01-10T08:24:39;23.63;;;10.43;;
7531;SDS011;3807;49.030;8.714;2024-01-10T08:27:05;20.53;;;10.40;;
7531;SDS011;3807;49.030;8.714;2024-01-10T08:29:31;17.80;;;9.73;;
7531;SDS011;3807;49.030;8.714;2024-01-10T08:31:56;21.23;;;10.23;;
7531;SDS011;3807;49.030;8.714;2024-01-10T08:34:23;18.63;;;9.17;;
7531;SDS011;3807;49.030;8.714;2024-01-10T08:36:49;22.03;;;10.13;;
7531;SDS011;3807;49.030;8.714;2024-01-10T08:39:15;18.13;;;9.60;;
7531;SDS011;3807;49.030;8.714;2024-01-10T08:41:41;26.43;;;11.97;;
7531;SDS011;3807;49.030;8.714;2024-01-10T08:44:09;20.30;;;10.27;;
7531;SDS011;3807;49.030;8.714;2024-01-10T08:46:37;22.07;;;9.97;;
7531;SDS011;3807;49.030;8.714;2024-01-10T08:49:03;23.50;;;10.57;;
7531;SDS011;3807;49.030;8.714;2024-01-10T08:51:28;20.67;;;10.07;;
7531;SDS011;3807;49.030;8.714;2024-01-10T08:53:54;21.83;;;11.53;;
7531;SDS011;3807;49.030;8.714;2024-01-10T08:56:20;20.13;;;10.10;;
7531;SDS011;3807;49.030;8.714;2024-01-10T08:58:45;21.67;;;10.53;;
7531;SDS011;3807;49.030;8.714;2024-01-10T09:01:11;20.47;;;10.87;;
7531;SDS011;3807;49.030;8.714;2024-01-10T09:03:36;25.77;;;10.60;;
7531;SDS011;3807;49.030;8.714;2024-01-10T09:06:03;12.87;;;7.33;;
7531;SDS011;3807;49.030;8.714;2024-01-10T09:08:29;23.47;;;10.87;;
7531;SDS011;3807;49.030;8.714;2024-01-10T09:10:54;25.50;;;10.37;;
7531;SDS011;3807;49.030;8.714;2024-01-10T09:13:20;21.10;;;8.60;;
7531;SDS011;3807;49.030;8.714;2024-01-10T09:15:45;16.87;;;9.93;;
7531;SDS011;3807;49.030;8.714;2024-01-10T09:18:11;16.03;;;8.20;;
7531;SDS011;3807;49.030;8.714;2024-01-10T09:20:36;21.80;;;10.80;;
7531;SDS011;3807;49.030;8.714;2024-01-10T09:23:02;19.13;;;9.60;;
7531;SDS011;3807;49.030;8.714;2024-01-10T09:25:28;15.23;;;8.30;;
7531;SDS011;3807;49.030;8.714;2024-01-10T09:27:54;13.87;;;8.00;;
7531;SDS011;3807;49.030;8.714;2024-01-10T09:30:20;26.43;;;10.83;;
7531;SDS011;3807;49.030;8.714;2024-01-10T09:32:45;17.43;;;9.27;;
7531;SDS011;3807;49.030;8.714;2024-01-10T09:35:10;20.00;;;9.70;;
7531;SDS011;3807;49.030;8.714;2024-01-10T09:37:37;18.70;;;7.97;;
7531;SDS011;3807;49.030;8.714;2024-01-10T09:40:02;19.37;;;10.03;;
7531;SDS011;3807;49.030;8.714;2024-01-10T09:42:32;22.10;;;9.97;;
7531;SDS011;3807;49.030;8.714;2024-01-10T09:45:00;25.13;;;11.63;;
7531;SDS011;3807;49.030;8.714;2024-01-10T09:47:26;18.00;;;10.30;;
7531;SDS011;3807;49.030;8.714;2024-01-10T09:49:53;20.10;;;11.53;;
7531;SDS011;3807;49.030;8.714;2024-01-10T09:52:26;25.17;;;11.23;;
7531;SDS011;3807;49.030;8.714;2024-01-10T09:54:56;20.50;;;10.37;;
7531;SDS011;3807;49.030;8.714;2024-01-10T09:57:25;23.13;;;9.73;;
7531;SDS011;3807;49.030;8.714;2024-01-10T09:59:51;26.73;;;13.10;;
7531;SDS011;3807;49.030;8.714;2024-01-10T10:02:18;16.10;;;9.23;;
7531;SDS011;3807;49.030;8.714;2024-01-10T10:04:53;27.37;;;12.27;;
7531;SDS011;3807;49.030;8.714;2024-01-10T10:07:21;25.17;;;12.83;;
7531;SDS011;3807;49.030;8.714;2024-01-10T10:09:47;22.87;;;12.50;;
7531;SDS011;3807;49.030;8.714;2024-01-10T10:12:12;23.03;;;12.47;;
7531;SDS011;3807;49.030;8.714;2024-01-10T10:14:38;24.47;;;12.77;;
7531;SDS011;3807;49.030;8.714;2024-01-10T10:17:13;24.10;;;12.90;;
7531;SDS011;3807;49.030;8.714;2024-01-10T10:19:42;24.67;;;11.67;;
7531;SDS011;3807;49.030;8.714;2024-01-10T10:22:08;17.63;;;9.33;;
7531;SDS011;3807;49.030;8.714;2024-01-10T10:24:34;25.93;;;13.73;;
7531;SDS011;3807;49.030;8.714;2024-01-10T10:26:59;27.30;;;10.07;;
7531;SDS011;3807;49.030;8.714;2024-01-10T10:29:25;16.43;;;8.47;;
7531;SDS011;3807;49.030;8.714;2024-01-10T10:31:50;26.53;;;11.47;;
7531;SDS011;3807;49.030;8.714;2024-01-10T10:34:20;9.37;;;5.63;;
7531;SDS011;3807;49.030;8.714;2024-01-10T10:36:47;25.00;;;13.77;;
7531;SDS011;3807;49.030;8.714;2024-01-10T10:39:15;26.70;;;14.03;;
7531;SDS011;3807;49.030;8.714;2024-01-10T10:41:41;25.77;;;13.70;;
7531;SDS011;3807;49.030;8.714;2024-01-10T10:44:08;26.00;;;13.23;;
7531;SDS011;3807;49.030;8.714;2024-01-10T10:46:34;27.30;;;12.37;;
7531;SDS011;3807;49.030;8.714;2024-01-10T10:49:04;32.10;;;12.13;;
7531;SDS011;3807;49.030;8.714;2024-01-10T10:51:36;30.87;;;16.40;;
7531;SDS011;3807;49.030;8.714;2024-01-10T10:54:05;26.43;;;11.90;;
7531;SDS011;3807;49.030;8.714;2024-01-10T10:56:33;27.43;;;14.27;;
7531;SDS011;3807;49.030;8.714;2024-01-10T10:59:01;15.87;;;9.30;;
7531;SDS011;3807;49.030;8.714;2024-01-10T11:01:28;15.87;;;9.67;;
7531;SDS011;3807;49.030;8.714;2024-01-10T11:03:54;26.53;;;13.63;;
7531;SDS011;3807;49.030;8.714;2024-01-10T11:06:20;27.47;;;13.03;;
7531;SDS011;3807;49.030;8.714;2024-01-10T11:08:47;26.63;;;12.07;;
7531;SDS011;3807;49.030;8.714;2024-01-10T11:14:21;25.17;;;11.87;;
7531;SDS011;3807;49.030;8.714;2024-01-10T11:25:12;20.33;;;11.80;;
7531;SDS011;3807;49.030;8.714;2024-01-10T11:27:39;19.53;;;9.23;;
7531;SDS011;3807;49.030;8.714;2024-01-10T11:30:04;20.37;;;9.93;;
7531;SDS011;3807;49.030;8.714;2024-01-10T11:32:31;23.23;;;11.90;;
7531;SDS011;3807;49.030;8.714;2024-01-10T11:34:59;28.40;;;10.50;;
7531;SDS011;3807;49.030;8.714;2024-01-10T11:37:28;20.97;;;9.97;;
7531;SDS011;3807;49.030;8.714;2024-01-10T11:40:07;27.40;;;12.63;;
7531;SDS011;3807;49.030;8.714;2024-01-10T11:42:41;26.90;;;12.43;;
7531;SDS011;3807;49.030;8.714;2024-01-10T11:45:07;27.43;;;12.77;;
7531;SDS011;3807;49.030;8.714;2024-01-10T11:47:33;27.40;;;11.93;;
7531;SDS011;3807;49.030;8.714;2024-01-10T11:49:59;22.77;;;11.27;;
7531;SDS011;3807;49.030;8.714;2024-01-10T11:52:33;25.13;;;12.17;;
7531;SDS011;3807;49.030;8.714;2024-01-10T11:55:01;19.03;;;10.97;;
7531;SDS011;3807;49.030;8.714;2024-01-10T11:57:27;18.90;;;11.50;;
7531;SDS011;3807;49.030;8.714;2024-01-10T11:59:54;24.97;;;12.47;;
7531;SDS011;3807;49.030;8.714;2024-01-10T12:02:21;20.70;;;9.30;;
7531;SDS011;3807;49.030;8.714;2024-01-10T12:04:52;24.10;;;11.07;;
7531;SDS011;3807;49.030;8.714;2024-01-10T12:07:20;27.30;;;13.73;;
7531;SDS011;3807;49.030;8.714;2024-01-10T12:09:46;24.67;;;10.17;;
7531;SDS011;3807;49.030;8.714;2024-01-10T12:12:12;25.70;;;13.20;;
7531;SDS011;3807;49.030;8.714;2024-01-10T12:14:38;24.13;;;13.20;;
7531;SDS011;3807;49.030;8.714;2024-01-10T12:17:05;17.67;;;10.10;;
7531;SDS011;3807;49.030;8.714;2024-01-10T12:19:33;27.80;;;14.37;;
7531;SDS011;3807;49.030;8.714;2024-01-10T12:21:59;35.90;;;14.43;;
7531;SDS011;3807;49.030;8.714;2024-01-10T12:24:26;25.63;;;13.70;;
7531;SDS011;3807;49.030;8.714;2024-01-10T12:26:54;29.33;;;13.40;;
7531;SDS011;3807;49.030;8.714;2024-01-10T12:29:20;25.87;;;12.60;;
7531;SDS011;3807;49.030;8.714;2024-01-10T12:31:46;30.27;;;16.10;;
7531;SDS011;3807;49.030;8.714;2024-01-10T12:34:12;26.03;;;11.50;;
7531;SDS011;3807;49.030;8.714;2024-01-10T12:36:39;23.97;;;13.23;;
7531;SDS011;3807;49.030;8.714;2024-01-10T12:39:04;29.37;;;14.30;;
7531;SDS011;3807;49.030;8.714;2024-01-10T12:41:32;25.10;;;11.87;;
7531;SDS011;3807;49.030;8.714;2024-01-10T12:43:58;23.40;;;12.03;;
7531;SDS011;3807;49.030;8.714;2024-01-10T12:46:28;18.00;;;9.97;;
7531;SDS011;3807;49.030;8.714;2024-01-10T12:49:00;16.17;;;8.77;;
7531;SDS011;3807;49.030;8.714;2024-01-10T12:51:28;27.77;;;13.40;;
7531;SDS011;3807;49.030;8.714;2024-01-10T12:53:55;24.00;;;11.80;;
7531;SDS011;3807;49.030;8.714;2024-01-10T12:56:21;25.03;;;11.97;;
7531;SDS011;3807;49.030;8.714;2024-01-10T12:58:46;28.40;;;14.13;;
7531;SDS011;3807;49.030;8.714;2024-01-10T13:01:12;27.33;;;14.87;;
7531;SDS011;3807;49.030;8.714;2024-01-10T13:03:37;26.73;;;13.57;;
7531;SDS011;3807;49.030;8.714;2024-01-10T13:06:04;26.77;;;14.97;;
7531;SDS011;3807;49.030;8.714;2024-01-10T13:08:30;21.27;;;12.33;;
7531;SDS011;3807;49.030;8.714;2024-01-10T13:10:57;28.83;;;14.53;;
7531;SDS011;3807;49.030;8.714;2024-01-10T13:13:22;25.07;;;14.07;;
7531;SDS011;3807;49.030;8.714;2024-01-10T13:15:48;18.07;;;9.90;;
7531;SDS011;3807;49.030;8.714;2024-01-10T13:18:14;18.40;;;9.83;;
7531;SDS011;3807;49.030;8.714;2024-01-10T13:20:40;25.87;;;13.73;;
7531;SDS011;3807;49.030;8.714;2024-01-10T13:23:08;32.10;;;12.53;;
7531;SDS011;3807;49.030;8.714;2024-01-10T13:25:34;27.57;;;13.97;;
7531;SDS011;3807;49.030;8.714;2024-01-10T13:28:02;22.53;;;11.97;;
7531;SDS011;3807;49.030;8.714;2024-01-10T13:30:28;25.50;;;12.37;;
7531;SDS011;3807;49.030;8.714;2024-01-10T13:32:53;25.83;;;12.97;;
7531;SDS011;3807;49.030;8.714;2024-01-10T13:35:18;27.93;;;14.20;;
7531;SDS011;3807;49.030;8.714;2024-01-10T13:37:44;24.87;;;14.40;;
7531;SDS011;3807;49.030;8.714;2024-01-10T13:40:10;27.60;;;15.00;;
7531;SDS011;3807;49.030;8.714;2024-01-10T13:42:39;23.63;;;10.70;;
7531;SDS011;3807;49.030;8.714;2024-01-10T13:45:08;30.53;;;14.83;;
7531;SDS011;3807;49.030;8.714;2024-01-10T13:47:37;27.63;;;13.90;;
7531;SDS011;3807;49.030;8.714;2024-01-10T13:50:06;26.47;;;13.50;;
7531;SDS011;3807;49.030;8.714;2024-01-10T13:52:33;31.70;;;15.40;;
7531;SDS011;3807;49.030;8.714;2024-01-10T13:54:59;26.27;;;13.53;;
7531;SDS011;3807;49.030;8.714;2024-01-10T13:57:25;28.73;;;13.50;;
7531;SDS011;3807;49.030;8.714;2024-01-10T13:59:50;26.23;;;13.47;;
7531;SDS011;3807;49.030;8.714;2024-01-10T14:02:16;31.00;;;15.70;;
7531;SDS011;3807;49.030;8.714;2024-01-10T14:04:43;28.90;;;13.90;;
7531;SDS011;3807;49.030;8.714;2024-01-10T14:07:09;29.73;;;15.53;;
7531;SDS011;3807;49.030;8.714;2024-01-10T14:09:35;31.53;;;14.20;;
7531;SDS011;3807;49.030;8.714;2024-01-10T14:12:00;27.47;;;14.53;;
7531;SDS011;3807;49.030;8.714;2024-01-10T14:14:26;29.03;;;13.97;;
7531;SDS011;3807;49.030;8.714;2024-01-10T14:16:51;34.07;;;15.77;;
7531;SDS011;3807;49.030;8.714;2024-01-10T14:19:16;28.70;;;15.03;;
7531;SDS011;3807;49.030;8.714;2024-01-10T14:21:45;32.47;;;14.30;;
7531;SDS011;3807;49.030;8.714;2024-01-10T14:24:11;26.93;;;15.10;;
7531;SDS011;3807;49.030;8.714;2024-01-10T14:26:36;20.07;;;10.10;;
7531;SDS011;3807;49.030;8.714;2024-01-10T14:29:02;23.77;;;13.30;;
7531;SDS011;3807;49.030;8.714;2024-01-10T14:31:27;27.37;;;12.83;;
7531;SDS011;3807;49.030;8.714;2024-01-10T14:33:53;25.43;;;13.77;;
7531;SDS011;3807;49.030;8.714;2024-01-10T14:36:18;32.50;;;14.50;;
7531;SDS011;3807;49.030;8.714;2024-01-10T14:38:44;30.50;;;13.63;;
7531;SDS011;3807;49.030;8.714;2024-01-10T14:41:09;32.80;;;14.97;;
7531;SDS011;3807;49.030;8.714;2024-01-10T14:43:36;27.93;;;13.90;;
7531;SDS011;3807;49.030;8.714;2024-01-10T14:46:01;27.20;;;13.17;;
7531;SDS011;3807;49.030;8.714;2024-01-10T14:48:27;29.47;;;14.20;;
7531;SDS011;3807;49.030;8.714;2024-01-10T14:50:53;27.93;;;14.33;;
7531;SDS011;3807;49.030;8.714;2024-01-10T14:53:18;30.77;;;15.43;;
7531;SDS011;3807;49.030;8.714;2024-01-10T14:55:44;26.90;;;13.37;;
7531;SDS011;3807;49.030;8.714;2024-01-10T14:58:09;27.27;;;14.00;;
7531;SDS011;3807;49.030;8.714;2024-01-10T15:00:35;26.83;;;14.73;;